createdAt,value
2023-07-18T00:01:42.539Z,16.01
2023-07-18T00:04:12.450Z,16.12
2023-07-18T00:06:43.211Z,16.13
2023-07-18T00:09:12.577Z,16.15
2023-07-18T00:11:42.449Z,16.16
2023-07-18T00:14:10.818Z,16.09
2023-07-18T00:16:39.258Z,16.08
2023-07-18T00:19:07.858Z,16.00
2023-07-18T00:21:40.552Z,16.06
2023-07-18T00:24:08.908Z,16.06
2023-07-18T00:26:37.402Z,16.04
2023-07-18T00:29:07.285Z,15.88
2023-07-18T00:31:35.569Z,15.76
2023-07-18T00:34:06.636Z,15.91
2023-07-18T00:36:35.084Z,15.79
2023-07-18T00:39:05.339Z,15.76
2023-07-18T00:41:35.394Z,15.84
2023-07-18T00:44:04.309Z,15.77
2023-07-18T00:46:32.571Z,15.67
2023-07-18T00:49:01.287Z,15.60
2023-07-18T00:51:29.756Z,15.61
2023-07-18T00:53:58.124Z,15.66
2023-07-18T00:56:27.714Z,15.57
2023-07-18T00:58:56.510Z,15.37
2023-07-18T01:01:24.818Z,15.50
2023-07-18T01:03:54.475Z,15.42
2023-07-18T01:06:22.972Z,15.46
2023-07-18T01:08:51.132Z,15.39
2023-07-18T01:11:20.854Z,15.45
2023-07-18T01:13:50.733Z,15.44
2023-07-18T01:16:18.949Z,15.27
2023-07-18T01:18:47.514Z,15.33
2023-07-18T01:21:20.574Z,15.44
2023-07-18T01:23:48.930Z,15.34
2023-07-18T01:26:17.428Z,15.21
2023-07-18T01:28:45.595Z,15.23
2023-07-18T01:31:14.139Z,15.07
2023-07-18T01:33:43.684Z,15.20
2023-07-18T01:36:11.944Z,15.25
2023-07-18T01:38:41.796Z,15.24
2023-07-18T01:41:09.965Z,15.13
2023-07-18T01:43:38.180Z,15.22
2023-07-18T01:46:06.659Z,15.10
2023-07-18T01:48:36.444Z,15.13
2023-07-18T01:51:05.021Z,15.17
2023-07-18T01:53:33.503Z,15.21
2023-07-18T01:56:03.125Z,15.08
2023-07-18T01:58:31.280Z,14.95
2023-07-18T02:00:59.807Z,15.03
2023-07-18T02:03:28.156Z,15.03
2023-07-18T02:05:56.519Z,14.94
2023-07-18T02:08:25.158Z,14.94
2023-07-18T02:10:53.368Z,14.98
2023-07-18T02:13:23.608Z,14.95
2023-07-18T02:15:51.810Z,14.96
2023-07-18T02:18:20.243Z,15.01
2023-07-18T02:20:48.696Z,14.98
2023-07-18T02:23:16.871Z,15.04
2023-07-18T02:25:45.024Z,15.02
2023-07-18T02:28:13.823Z,15.12
2023-07-18T02:30:43.623Z,15.09
2023-07-18T02:33:12.292Z,15.14
2023-07-18T02:35:40.578Z,14.95
2023-07-18T02:38:08.741Z,15.02
2023-07-18T02:40:37.196Z,15.13
2023-07-18T02:43:05.359Z,15.14
2023-07-18T02:45:33.688Z,15.20
2023-07-18T02:48:03.642Z,15.26
2023-07-18T02:50:31.763Z,15.15
2023-07-18T02:53:00.453Z,15.20
2023-07-18T02:55:29.002Z,15.18
2023-07-18T02:58:00.124Z,15.21
2023-07-18T03:00:35.316Z,15.28
2023-07-18T03:03:09.306Z,15.07
2023-07-18T03:05:39.511Z,15.05
2023-07-18T03:08:09.224Z,15.08
2023-07-18T03:10:39.265Z,15.01
2023-07-18T03:13:08.687Z,14.90
2023-07-18T03:15:41.249Z,14.97
2023-07-18T03:18:16.205Z,14.94
2023-07-18T03:20:48.264Z,14.95
2023-07-18T03:23:20.629Z,14.88
2023-07-18T03:25:49.962Z,14.93
2023-07-18T03:28:21.485Z,14.85
2023-07-18T03:30:50.850Z,14.92
2023-07-18T03:33:22.316Z,14.93
2023-07-18T03:35:51.663Z,14.82
2023-07-18T03:38:21.380Z,14.93
2023-07-18T03:40:51.265Z,14.91
2023-07-18T03:43:23.228Z,14.91
2023-07-18T03:45:56.690Z,14.91
2023-07-18T03:48:29.718Z,14.89
2023-07-18T03:50:58.173Z,14.88
2023-07-18T03:53:27.086Z,14.80
2023-07-18T03:55:57.518Z,14.80
2023-07-18T03:58:25.771Z,14.81
2023-07-18T04:00:53.939Z,14.80
2023-07-18T04:03:22.118Z,14.94
2023-07-18T04:05:52.628Z,14.84
2023-07-18T04:08:20.819Z,14.80
2023-07-18T04:10:48.996Z,14.90
2023-07-18T04:13:17.589Z,14.81
2023-07-18T04:15:45.816Z,14.82
2023-07-18T04:18:14.016Z,14.84
2023-07-18T04:20:42.480Z,14.88
2023-07-18T04:23:12.159Z,14.95
2023-07-18T04:25:56.148Z,14.97
2023-07-18T04:28:24.656Z,14.99
2023-07-18T04:30:53.340Z,15.01
2023-07-18T04:33:22.037Z,15.08
2023-07-18T04:35:50.174Z,15.13
2023-07-18T04:38:20.237Z,15.16
2023-07-18T04:40:48.702Z,15.16
2023-07-18T04:43:33.247Z,15.13
2023-07-18T04:46:06.552Z,15.19
2023-07-18T04:48:35.144Z,15.24
2023-07-18T04:51:03.843Z,15.23
2023-07-18T04:53:34.743Z,15.26
2023-07-18T04:56:02.935Z,15.30
2023-07-18T04:58:31.863Z,15.35
2023-07-18T05:01:01.148Z,15.41
2023-07-18T05:03:31.884Z,15.49
2023-07-18T05:06:03.809Z,15.55
2023-07-18T05:08:33.494Z,15.61
2023-07-18T05:11:02.645Z,15.67
2023-07-18T05:13:31.089Z,15.62
2023-07-18T05:16:01.620Z,15.80
2023-07-18T05:18:30.476Z,15.73
2023-07-18T05:20:59.170Z,15.71
2023-07-18T05:23:27.780Z,15.66
2023-07-18T05:25:58.736Z,15.83
2023-07-18T05:28:26.905Z,15.96
2023-07-18T05:30:55.294Z,15.91
2023-07-18T05:33:23.532Z,15.97
2023-07-18T05:35:53.822Z,15.97
2023-07-18T05:38:22.012Z,16.06
2023-07-18T05:40:50.186Z,15.98
2023-07-18T05:43:21.105Z,16.17
2023-07-18T05:45:49.297Z,16.14
2023-07-18T05:48:17.487Z,16.22
2023-07-18T05:50:46.063Z,16.24
2023-07-18T05:53:14.242Z,16.26
2023-07-18T05:55:42.835Z,16.23
2023-07-18T05:58:12.020Z,16.38
2023-07-18T06:00:41.628Z,16.47
2023-07-18T06:03:10.295Z,16.42
2023-07-18T06:05:42.116Z,16.51
2023-07-18T06:08:11.810Z,16.59
2023-07-18T06:10:40.290Z,16.60
2023-07-18T06:13:08.481Z,16.59
2023-07-18T06:15:36.627Z,16.67
2023-07-18T06:18:06.341Z,16.91
2023-07-18T06:20:34.834Z,16.93
2023-07-18T06:23:03.339Z,16.98
2023-07-18T06:25:34.066Z,17.05
2023-07-18T06:28:03.121Z,17.02
2023-07-18T06:30:31.523Z,17.10
2023-07-18T06:33:00.485Z,17.38
2023-07-18T06:35:30.865Z,17.31
2023-07-18T06:37:59.060Z,17.31
2023-07-18T06:40:27.269Z,17.41
2023-07-18T06:42:55.460Z,17.41
2023-07-18T06:45:25.472Z,17.62
2023-07-18T06:47:53.663Z,17.84
2023-07-18T06:50:22.235Z,17.80
2023-07-18T06:52:52.511Z,17.91
2023-07-18T06:55:21.173Z,17.95
2023-07-18T06:57:50.303Z,17.97
2023-07-18T07:00:21.207Z,18.27
2023-07-18T07:02:49.447Z,18.21
2023-07-18T07:05:21.077Z,18.25
2023-07-18T07:07:50.935Z,18.57
2023-07-18T07:10:21.464Z,18.58
2023-07-18T07:12:50.104Z,18.72
2023-07-18T07:15:18.238Z,18.68
2023-07-18T07:17:46.812Z,18.82
2023-07-18T07:20:15.086Z,18.97
2023-07-18T07:22:45.443Z,19.20
2023-07-18T07:25:14.564Z,19.17
2023-07-18T07:27:45.440Z,19.17
2023-07-18T07:30:16.667Z,19.08
2023-07-18T07:32:45.813Z,19.17
2023-07-18T07:35:14.671Z,19.37
2023-07-18T07:37:43.375Z,19.22
2023-07-18T07:40:12.681Z,19.31
2023-07-18T07:42:41.391Z,19.36
2023-07-18T07:45:12.279Z,19.26
2023-07-18T07:47:40.541Z,19.56
2023-07-18T07:50:09.541Z,19.61
2023-07-18T07:52:38.495Z,19.62
2023-07-18T07:55:17.812Z,19.75
2023-07-18T07:57:50.783Z,19.80
2023-07-18T08:00:22.509Z,19.77
2023-07-18T08:02:50.790Z,19.80
2023-07-18T08:05:19.885Z,19.78
2023-07-18T08:07:48.541Z,19.94
2023-07-18T08:10:17.067Z,19.87
2023-07-18T08:12:45.541Z,19.89
2023-07-18T08:15:13.869Z,20.01
2023-07-18T08:17:43.519Z,20.02
2023-07-18T08:20:14.129Z,20.31
2023-07-18T08:22:42.849Z,20.39
2023-07-18T08:25:11.202Z,20.36
2023-07-18T08:27:39.392Z,20.66
2023-07-18T08:30:08.907Z,21.02
2023-07-18T08:32:37.053Z,21.20
2023-07-18T08:35:07.891Z,21.42
2023-07-18T08:37:36.049Z,21.69
2023-07-18T08:40:06.310Z,21.73
2023-07-18T08:42:34.542Z,21.71
2023-07-18T08:45:04.540Z,21.79
2023-07-18T08:47:35.100Z,21.83
2023-07-18T08:50:03.732Z,21.91
2023-07-18T08:52:40.481Z,22.04
2023-07-18T08:55:13.790Z,21.96
2023-07-18T08:57:46.796Z,21.98
2023-07-18T09:00:16.068Z,21.83
2023-07-18T09:02:44.277Z,22.01
2023-07-18T09:05:31.113Z,22.20
2023-07-18T09:08:00.920Z,22.40
2023-07-18T09:10:29.137Z,22.37
2023-07-18T09:12:57.763Z,22.31
2023-07-18T09:15:26.023Z,22.33
2023-07-18T09:17:56.148Z,22.35
2023-07-18T09:20:25.909Z,22.44
2023-07-18T09:22:57.898Z,22.54
2023-07-18T09:25:28.525Z,22.88
2023-07-18T09:27:57.009Z,22.75
2023-07-18T09:30:26.247Z,23.20
2023-07-18T09:32:55.824Z,23.32
2023-07-18T09:35:25.412Z,23.22
2023-07-18T09:37:59.501Z,23.48
2023-07-18T09:40:29.589Z,23.29
2023-07-18T09:42:58.111Z,23.47
2023-07-18T09:45:29.343Z,23.70
2023-07-18T09:47:59.042Z,23.71
2023-07-18T09:50:27.986Z,23.96
2023-07-18T09:52:56.438Z,23.88
2023-07-18T09:55:26.040Z,23.78
2023-07-18T09:57:57.196Z,23.71
2023-07-18T10:00:25.948Z,24.00
2023-07-18T10:02:55.729Z,23.78
2023-07-18T10:05:24.767Z,23.69
2023-07-18T10:07:53.164Z,23.87
2023-07-18T10:10:21.403Z,23.90
2023-07-18T10:13:03.720Z,24.00
2023-07-18T10:15:31.935Z,23.92
2023-07-18T10:18:18.543Z,24.01
2023-07-18T10:20:59.005Z,24.36
2023-07-18T10:23:41.190Z,24.36
2023-07-18T10:26:10.438Z,24.50
2023-07-18T10:28:47.264Z,24.46
2023-07-18T10:31:31.593Z,24.40
2023-07-18T10:34:10.570Z,24.36
2023-07-18T10:36:39.778Z,24.11
2023-07-18T10:39:14.646Z,24.29
2023-07-18T10:41:46.024Z,24.06
2023-07-18T10:44:16.334Z,24.46
2023-07-18T10:46:45.037Z,24.45
2023-07-18T10:49:13.294Z,24.65
2023-07-18T10:51:41.802Z,24.81
2023-07-18T10:54:10.931Z,24.43
2023-07-18T10:56:39.134Z,24.53
2023-07-18T10:59:07.598Z,24.42
2023-07-18T11:01:37.255Z,24.68
2023-07-18T11:04:08.670Z,24.11
2023-07-18T11:06:37.195Z,24.45
2023-07-18T11:09:06.245Z,24.39
2023-07-18T11:11:34.435Z,24.35
2023-07-18T11:14:03.953Z,24.67
2023-07-18T11:16:32.229Z,24.48
2023-07-18T11:19:03.991Z,24.83
2023-07-18T11:21:32.285Z,24.65
2023-07-18T11:24:03.601Z,24.78
2023-07-18T11:26:33.327Z,24.87
2023-07-18T11:29:02.309Z,25.10
2023-07-18T11:34:07.041Z,25.39
2023-07-18T11:39:05.433Z,25.44
2023-07-18T11:41:34.924Z,25.49
2023-07-18T11:44:03.822Z,25.20
2023-07-18T11:46:38.619Z,25.28
2023-07-18T11:49:08.303Z,25.46
2023-07-18T11:51:36.605Z,25.68
2023-07-18T11:54:05.558Z,25.47
2023-07-18T11:56:33.999Z,25.04
2023-07-18T11:59:02.214Z,25.03
2023-07-18T12:01:30.438Z,25.39
2023-07-18T12:03:58.718Z,25.39
2023-07-18T12:06:28.343Z,25.73
2023-07-18T12:08:56.862Z,25.58
2023-07-18T12:11:25.208Z,25.69
2023-07-18T12:13:53.550Z,25.65
2023-07-18T12:16:21.827Z,25.99
2023-07-18T12:18:50.035Z,25.96
2023-07-18T12:21:19.038Z,25.67
2023-07-18T12:23:48.959Z,25.71
2023-07-18T12:26:18.239Z,25.47
2023-07-18T12:28:46.575Z,25.51
2023-07-18T12:31:16.659Z,25.53
2023-07-18T12:33:44.950Z,25.39
2023-07-18T12:36:13.718Z,25.65
2023-07-18T12:38:41.935Z,25.53
2023-07-18T12:41:11.466Z,25.61
2023-07-18T12:43:39.996Z,25.93
2023-07-18T12:46:08.345Z,25.98
2023-07-18T12:48:36.547Z,25.44
2023-07-18T12:51:05.138Z,25.54
2023-07-18T12:53:33.806Z,25.89
2023-07-18T12:56:01.994Z,25.66
2023-07-18T12:58:35.139Z,26.01
2023-07-18T13:01:05.828Z,26.04
2023-07-18T13:03:34.647Z,26.31
2023-07-18T13:06:07.051Z,26.23
2023-07-18T13:08:35.281Z,26.32
2023-07-18T13:11:03.575Z,26.07
2023-07-18T13:13:33.149Z,25.77
2023-07-18T13:16:01.313Z,25.48
2023-07-18T13:18:29.604Z,24.96
2023-07-18T13:20:57.867Z,25.41
2023-07-18T13:23:26.003Z,25.81
2023-07-18T13:25:54.165Z,25.94
2023-07-18T13:28:22.361Z,25.99
2023-07-18T13:30:51.933Z,26.25
2023-07-18T13:33:22.596Z,26.35
2023-07-18T13:35:50.883Z,26.48
2023-07-18T13:38:19.063Z,26.11
2023-07-18T13:40:47.886Z,25.56
2023-07-18T13:43:16.560Z,25.47
2023-07-18T13:45:49.610Z,25.79
2023-07-18T13:48:22.176Z,25.78
2023-07-18T13:50:52.871Z,25.87
2023-07-18T13:53:26.271Z,26.07
2023-07-18T13:55:54.772Z,26.49
2023-07-18T13:58:23.095Z,26.35
2023-07-18T14:00:56.930Z,26.58
2023-07-18T14:03:35.294Z,26.75
2023-07-18T14:06:05.734Z,26.94
2023-07-18T14:08:34.615Z,26.91
2023-07-18T14:11:04.190Z,27.15
2023-07-18T14:13:32.747Z,26.75
2023-07-18T14:16:01.205Z,26.71
2023-07-18T14:18:31.047Z,26.69
2023-07-18T14:20:59.723Z,26.59
2023-07-18T14:23:28.808Z,26.33
2023-07-18T14:25:57.516Z,26.49
2023-07-18T14:28:25.839Z,26.60
2023-07-18T14:30:54.355Z,26.60
2023-07-18T14:33:26.033Z,26.53
2023-07-18T14:35:59.063Z,26.74
2023-07-18T14:38:27.361Z,26.82
2023-07-18T14:40:55.631Z,26.69
2023-07-18T14:43:30.181Z,26.80
2023-07-18T14:45:58.530Z,26.64
2023-07-18T14:48:26.934Z,27.13
2023-07-18T14:50:57.363Z,27.14
2023-07-18T14:53:27.276Z,26.89
2023-07-18T14:55:56.607Z,26.89
2023-07-18T14:58:24.786Z,26.74
2023-07-18T15:00:53.022Z,26.83
2023-07-18T15:03:21.528Z,26.50
2023-07-18T15:05:49.760Z,26.97
2023-07-18T15:08:19.299Z,27.19
2023-07-18T15:10:48.439Z,26.95
2023-07-18T15:13:20.941Z,27.39
2023-07-18T15:15:54.180Z,27.47
2023-07-18T15:18:24.467Z,27.69
2023-07-18T15:20:52.748Z,27.86
2023-07-18T15:23:22.599Z,27.60
2023-07-18T15:25:51.643Z,27.43
2023-07-18T15:28:19.915Z,27.35
2023-07-18T15:30:48.121Z,27.35
2023-07-18T15:33:27.203Z,27.59
2023-07-18T15:35:56.565Z,27.34
2023-07-18T15:38:27.290Z,27.26
2023-07-18T15:40:55.522Z,26.95
2023-07-18T15:43:24.813Z,26.98
2023-07-18T15:45:53.206Z,26.75
2023-07-18T15:48:21.396Z,27.04
2023-07-18T15:50:50.123Z,27.16
2023-07-18T15:53:20.054Z,27.29
2023-07-18T15:55:50.613Z,27.32
2023-07-18T15:58:20.729Z,27.22
2023-07-18T16:00:50.468Z,27.41
2023-07-18T16:03:18.882Z,27.31
2023-07-18T16:05:47.183Z,27.41
2023-07-18T16:08:15.785Z,27.37
2023-07-18T16:10:52.254Z,27.32
2023-07-18T16:13:22.189Z,27.34
2023-07-18T16:15:50.432Z,27.19
2023-07-18T16:18:19.085Z,26.73
2023-07-18T16:20:49.708Z,26.63
2023-07-18T16:23:18.062Z,26.74
2023-07-18T16:25:46.247Z,26.35
2023-07-18T16:28:16.993Z,26.62
2023-07-18T16:30:47.302Z,26.62
2023-07-18T16:33:15.824Z,26.19
2023-07-18T16:35:44.318Z,26.51
2023-07-18T16:38:12.515Z,26.22
2023-07-18T16:40:40.708Z,26.38
2023-07-18T16:43:08.840Z,26.20
2023-07-18T16:45:40.384Z,26.25
2023-07-18T16:48:09.994Z,26.26
2023-07-18T16:50:38.457Z,26.19
2023-07-18T16:53:06.661Z,26.20
2023-07-18T16:55:34.889Z,26.15
2023-07-18T16:58:03.992Z,25.94
2023-07-18T17:00:32.248Z,26.19
2023-07-18T17:03:00.882Z,26.17
2023-07-18T17:05:30.663Z,26.21
2023-07-18T17:08:02.970Z,25.98
2023-07-18T17:10:32.199Z,26.00
2023-07-18T17:13:00.345Z,26.07
2023-07-18T17:15:30.269Z,25.81
2023-07-18T17:17:58.735Z,25.70
2023-07-18T17:20:27.069Z,25.93
2023-07-18T17:22:57.379Z,25.73
2023-07-18T17:25:27.842Z,25.71
2023-07-18T17:27:56.227Z,25.50
2023-07-18T17:30:26.172Z,25.53
2023-07-18T17:32:55.795Z,25.59
2023-07-18T17:35:24.557Z,25.65
2023-07-18T17:37:56.028Z,25.62
2023-07-18T17:40:26.372Z,25.43
2023-07-18T17:42:55.003Z,25.26
2023-07-18T17:45:24.892Z,25.33
2023-07-18T17:47:58.657Z,25.07
2023-07-18T17:50:27.352Z,25.04
2023-07-18T17:52:57.635Z,25.21
2023-07-18T17:55:28.807Z,25.15
2023-07-18T17:57:59.665Z,25.14
2023-07-18T18:00:28.873Z,24.98
2023-07-18T18:02:57.427Z,24.89
2023-07-18T18:05:45.717Z,24.76
2023-07-18T18:08:15.279Z,24.86
2023-07-18T18:10:45.522Z,24.73
2023-07-18T18:13:14.377Z,24.78
2023-07-18T18:15:56.328Z,24.79
2023-07-18T18:18:29.945Z,24.64
2023-07-18T18:20:58.179Z,24.61
2023-07-18T18:23:37.667Z,24.54
2023-07-18T18:26:10.132Z,24.54
2023-07-18T18:28:43.462Z,24.21
2023-07-18T18:31:12.827Z,24.16
2023-07-18T18:33:42.147Z,24.07
2023-07-18T18:36:12.431Z,23.94
2023-07-18T18:38:41.121Z,23.81
2023-07-18T18:41:11.035Z,23.69
2023-07-18T18:43:39.777Z,23.55
2023-07-18T18:46:08.142Z,23.49
2023-07-18T18:48:36.892Z,23.42
2023-07-18T18:51:05.912Z,23.40
2023-07-18T18:53:34.514Z,23.32
2023-07-18T18:56:03.286Z,23.23
2023-07-18T18:58:34.197Z,23.10
2023-07-18T19:01:02.419Z,23.15
2023-07-18T19:03:30.920Z,23.02
2023-07-18T19:05:59.647Z,23.00
2023-07-18T19:08:27.803Z,22.86
2023-07-18T19:11:07.217Z,22.76
2023-07-18T19:13:38.017Z,22.71
2023-07-18T19:16:07.881Z,22.74
2023-07-18T19:18:37.041Z,22.60
2023-07-18T19:21:05.661Z,22.48
2023-07-18T19:23:37.321Z,22.20
2023-07-18T19:26:06.365Z,22.21
2023-07-18T19:28:34.740Z,22.26
2023-07-18T19:31:04.473Z,22.30
2023-07-18T19:33:33.250Z,22.24
2023-07-18T19:36:01.580Z,22.16
2023-07-18T19:38:30.962Z,22.15
2023-07-18T19:40:59.502Z,22.02
2023-07-18T19:43:27.758Z,22.09
2023-07-18T19:45:55.903Z,21.98
2023-07-18T19:48:26.528Z,21.97
2023-07-18T19:50:55.107Z,21.92
2023-07-18T19:53:25.772Z,21.87
2023-07-18T19:55:54.133Z,21.80
2023-07-18T19:58:24.888Z,21.74
2023-07-18T20:00:53.296Z,21.64
2023-07-18T20:03:21.634Z,21.53
2023-07-18T20:05:51.951Z,21.43
2023-07-18T20:08:20.966Z,21.38
2023-07-18T20:10:50.558Z,21.37
2023-07-18T20:13:19.438Z,21.32
2023-07-18T20:15:47.808Z,21.27
2023-07-18T20:18:17.080Z,21.20
2023-07-18T20:20:46.433Z,21.23
2023-07-18T20:23:16.179Z,21.13
2023-07-18T20:25:44.896Z,21.08
2023-07-18T20:28:13.597Z,20.95
2023-07-18T20:30:41.665Z,20.98
2023-07-18T20:33:10.035Z,20.96
2023-07-18T20:35:38.271Z,20.94
2023-07-18T20:38:06.455Z,20.91
2023-07-18T20:40:37.782Z,20.76
2023-07-18T20:43:06.350Z,20.70
2023-07-18T20:45:35.254Z,20.61
2023-07-18T20:48:04.364Z,20.49
2023-07-18T20:50:33.837Z,20.41
2023-07-18T20:53:02.293Z,20.18
2023-07-18T20:55:30.513Z,20.10
2023-07-18T20:58:00.215Z,20.26
2023-07-18T21:00:28.953Z,20.26
2023-07-18T21:02:59.682Z,20.25
2023-07-18T21:05:28.120Z,20.26
2023-07-18T21:07:56.368Z,20.22
2023-07-18T21:10:24.788Z,20.17
2023-07-18T21:12:53.383Z,20.07
2023-07-18T21:15:23.303Z,20.08
2023-07-18T21:17:51.539Z,20.08
2023-07-18T21:20:20.170Z,20.04
2023-07-18T21:22:48.339Z,19.97
2023-07-18T21:25:16.558Z,20.04
2023-07-18T21:27:44.930Z,20.04
2023-07-18T21:30:13.954Z,20.00
2023-07-18T21:32:43.798Z,19.93
2023-07-18T21:35:15.832Z,19.88
2023-07-18T21:37:44.069Z,19.79
2023-07-18T21:40:13.089Z,19.69
2023-07-18T21:42:41.254Z,19.67
2023-07-18T21:45:09.757Z,19.73
2023-07-18T21:47:37.982Z,19.76
2023-07-18T21:50:08.122Z,19.74
2023-07-18T21:52:36.531Z,19.71
2023-07-18T21:55:05.083Z,19.66
2023-07-18T21:57:33.232Z,19.54
2023-07-18T22:00:01.352Z,19.33
2023-07-18T22:02:35.463Z,19.43
2023-07-18T22:05:03.818Z,19.50
2023-07-18T22:07:33.560Z,19.50
2023-07-18T22:10:03.276Z,19.48
2023-07-18T22:12:32.294Z,19.47
2023-07-18T22:15:01.363Z,19.49
2023-07-18T22:17:30.786Z,19.49
2023-07-18T22:20:00.080Z,19.48
2023-07-18T22:22:28.498Z,19.47
2023-07-18T22:24:58.531Z,19.28
2023-07-18T22:27:27.467Z,19.37
2023-07-18T22:29:55.998Z,19.38
2023-07-18T22:32:24.628Z,19.37
2023-07-18T22:34:53.339Z,19.37
2023-07-18T22:37:23.774Z,19.34
2023-07-18T22:39:53.971Z,19.29
2023-07-18T22:42:25.040Z,19.27
2023-07-18T22:44:53.664Z,19.19
2023-07-18T22:47:22.329Z,19.16
2023-07-18T22:49:51.496Z,19.11
2023-07-18T22:52:20.335Z,19.13
2023-07-18T22:54:51.206Z,19.11
2023-07-18T22:57:19.661Z,19.09
2023-07-18T22:59:49.412Z,19.05
2023-07-18T23:02:18.221Z,18.82
2023-07-18T23:04:47.667Z,18.76
2023-07-18T23:07:16.561Z,18.89
2023-07-18T23:09:45.271Z,18.85
2023-07-18T23:12:13.714Z,18.86
2023-07-18T23:14:41.876Z,18.85
2023-07-18T23:17:11.746Z,18.86
2023-07-18T23:19:39.943Z,18.83
2023-07-18T23:22:08.601Z,18.81
2023-07-18T23:24:37.559Z,18.84
2023-07-18T23:27:07.101Z,18.85
2023-07-18T23:29:36.239Z,18.70
2023-07-18T23:32:05.164Z,18.68
2023-07-18T23:34:35.080Z,18.65
2023-07-18T23:37:03.662Z,18.66
2023-07-18T23:39:32.272Z,18.68
2023-07-18T23:42:04.455Z,18.67
2023-07-18T23:44:33.509Z,18.67
2023-07-18T23:47:03.180Z,18.64
2023-07-18T23:49:31.515Z,18.60
2023-07-18T23:52:01.473Z,18.51
2023-07-18T23:54:30.274Z,18.54
2023-07-18T23:56:59.401Z,18.63
2023-07-18T23:59:28.152Z,18.60
